Time;durP1;ratioP1;P1;durP2;ratioP2;P2;SDS_P1;SDS_P2;PMS_P1;PMS_P2;Temp;Humidity;BMP_temperature;BMP_pressure;BME280_temperature;BME280_humidity;BME280_pressure;Samples;Min_cycle;Max_cycle;Signal;HPM_P1;HPM_P2
2021/06/16 00:01:43;;;;;;;12.33;5.50;;;;;;;;;;10534718;28;20505;-68
2021/06/16 00:06:46;;;;;;;10.87;4.83;;;;;;;;;;10533213;28;20390;-67
2021/06/16 00:11:50;;;;;;;10.30;4.50;;;;;;;;;;10534158;28;20214;-67
2021/06/16 00:16:53;;;;;;;8.40;4.10;;;;;;;;;;10532255;28;20295;-67
2021/06/16 00:21:55;;;;;;;8.40;4.17;;;;;;;;;;10535454;28;20196;-68
2021/06/16 00:26:59;;;;;;;7.53;3.77;;;;;;;;;;10532824;28;20229;-67
2021/06/16 00:32:02;;;;;;;6.07;3.90;;;;;;;;;;10534287;28;20203;-67
2021/06/16 00:37:04;;;;;;;6.87;3.00;;;;;;;;;;10533027;28;20226;-67
2021/06/16 00:42:09;;;;;;;7.23;3.17;;;;;;;;;;10530263;28;20248;-68
2021/06/16 00:47:11;;;;;;;7.20;3.30;;;;;;;;;;10524219;28;20208;-68
2021/06/16 00:52:14;;;;;;;7.23;2.90;;;;;;;;;;10533362;28;20203;-67
2021/06/16 00:57:18;;;;;;;5.70;2.90;;;;;;;;;;10531562;28;20298;-67
2021/06/16 01:02:21;;;;;;;6.60;2.90;;;;;;;;;;10531462;28;20267;-66
2021/06/16 01:07:26;;;;;;;8.33;3.10;;;;;;;;;;10528367;28;20284;-67
2021/06/16 01:12:35;;;;;;;6.20;2.63;;;;;;;;;;10528585;28;20230;-67
2021/06/16 01:17:41;;;;;;;6.37;2.93;;;;;;;;;;10533430;28;20233;-68
2021/06/16 01:22:45;;;;;;;8.07;3.33;;;;;;;;;;10527945;28;20313;-67
2021/06/16 01:27:49;;;;;;;6.57;3.57;;;;;;;;;;10532813;28;20298;-67
2021/06/16 01:32:52;;;;;;;6.30;3.23;;;;;;;;;;10528624;28;20295;-67
2021/06/16 01:37:55;;;;;;;6.27;2.93;;;;;;;;;;10527607;28;20215;-67
2021/06/16 01:43:01;;;;;;;8.07;3.37;;;;;;;;;;10527769;28;20528;-67
2021/06/16 01:48:06;;;;;;;7.13;3.10;;;;;;;;;;10530824;28;20231;-68
2021/06/16 01:53:09;;;;;;;7.80;3.40;;;;;;;;;;10529095;28;20589;-67
2021/06/16 01:58:14;;;;;;;7.27;3.57;;;;;;;;;;10520057;28;20227;-68
2021/06/16 02:03:17;;;;;;;7.20;3.33;;;;;;;;;;10531041;28;20282;-67
2021/06/16 02:08:21;;;;;;;10.53;3.80;;;;;;;;;;10526414;28;21000;-69
2021/06/16 02:13:26;;;;;;;7.60;3.47;;;;;;;;;;10530348;28;20580;-68
2021/06/16 02:18:31;;;;;;;8.87;3.83;;;;;;;;;;10527861;28;20814;-67
2021/06/16 02:23:34;;;;;;;8.07;3.93;;;;;;;;;;10529383;28;20192;-69
2021/06/16 02:28:38;;;;;;;7.60;3.60;;;;;;;;;;10529900;28;20702;-68
2021/06/16 02:33:41;;;;;;;8.23;3.90;;;;;;;;;;10526652;28;20237;-67
2021/06/16 02:38:44;;;;;;;8.90;4.20;;;;;;;;;;10525167;28;20352;-67
2021/06/16 02:43:48;;;;;;;7.93;4.00;;;;;;;;;;10522074;28;20192;-67
2021/06/16 02:48:51;;;;;;;8.33;3.87;;;;;;;;;;10527931;28;20219;-68
2021/06/16 02:53:55;;;;;;;8.37;3.90;;;;;;;;;;10521103;28;20294;-68
2021/06/16 02:58:59;;;;;;;7.80;3.80;;;;;;;;;;10526456;28;20294;-68
2021/06/16 03:04:02;;;;;;;8.57;4.20;;;;;;;;;;10528492;28;20195;-69
2021/06/16 03:09:05;;;;;;;8.10;3.90;;;;;;;;;;10525563;28;20613;-67
2021/06/16 03:14:09;;;;;;;7.77;3.50;;;;;;;;;;10521484;28;20215;-68
2021/06/16 03:19:12;;;;;;;7.37;3.33;;;;;;;;;;10526960;28;20277;-67
2021/06/16 03:24:15;;;;;;;9.13;3.40;;;;;;;;;;10537389;28;20194;-67
2021/06/16 03:29:19;;;;;;;7.40;3.50;;;;;;;;;;10559139;28;20293;-67
2021/06/16 03:34:22;;;;;;;5.93;2.70;;;;;;;;;;10549431;28;20211;-67
2021/06/16 03:39:25;;;;;;;8.07;2.90;;;;;;;;;;10540739;28;20261;-67
2021/06/16 03:44:30;;;;;;;5.77;3.03;;;;;;;;;;10539643;28;20219;-66
2021/06/16 03:49:33;;;;;;;6.17;2.90;;;;;;;;;;10542637;28;20642;-67
2021/06/16 03:54:37;;;;;;;6.63;2.90;;;;;;;;;;10539807;28;20238;-67
2021/06/16 03:59:41;;;;;;;7.50;2.70;;;;;;;;;;10542043;28;20215;-68
2021/06/16 04:04:43;;;;;;;7.27;3.47;;;;;;;;;;10537894;28;20333;-67
2021/06/16 04:09:48;;;;;;;7.43;3.20;;;;;;;;;;10531380;28;20208;-68
2021/06/16 04:14:52;;;;;;;7.60;3.70;;;;;;;;;;10532034;28;20614;-66
2021/06/16 04:20:16;;;;;;;9.27;3.80;;;;;;;;;;10540447;28;20302;-68
2021/06/16 04:25:19;;;;;;;6.97;3.07;;;;;;;;;;10535774;28;20271;-66
2021/06/16 04:30:23;;;;;;;6.67;3.40;;;;;;;;;;10533579;28;20291;-68
2021/06/16 04:35:26;;;;;;;7.00;3.67;;;;;;;;;;10532658;28;20231;-68
2021/06/16 04:40:29;;;;;;;8.73;3.50;;;;;;;;;;10532126;28;20215;-67
2021/06/16 04:45:33;;;;;;;6.63;3.80;;;;;;;;;;10544633;28;20195;-68
2021/06/16 04:50:35;;;;;;;9.37;4.23;;;;;;;;;;10535426;28;20291;-68
2021/06/16 04:55:38;;;;;;;9.63;4.10;;;;;;;;;;10538503;28;20333;-68
2021/06/16 05:00:42;;;;;;;9.40;4.53;;;;;;;;;;10527014;28;20274;-68
2021/06/16 05:05:45;;;;;;;8.77;4.30;;;;;;;;;;10530300;28;20624;-67
2021/06/16 05:10:47;;;;;;;10.13;4.37;;;;;;;;;;10527052;28;20284;-67
2021/06/16 05:15:52;;;;;;;10.67;4.23;;;;;;;;;;10528091;28;21396;-66
2021/06/16 05:20:54;;;;;;;8.20;4.50;;;;;;;;;;10544581;28;20561;-67
2021/06/16 05:25:57;;;;;;;8.63;5.03;;;;;;;;;;10544131;28;20791;-67
2021/06/16 05:31:01;;;;;;;10.87;5.47;;;;;;;;;;10537670;28;20282;-66
2021/06/16 05:36:03;;;;;;;8.00;4.53;;;;;;;;;;10527348;28;20215;-67
2021/06/16 05:41:06;;;;;;;10.00;4.87;;;;;;;;;;10528448;28;20330;-69
2021/06/16 05:46:11;;;;;;;10.77;4.80;;;;;;;;;;10541126;28;20199;-69
2021/06/16 05:51:13;;;;;;;9.97;5.10;;;;;;;;;;10530741;28;20223;-69
2021/06/16 05:56:16;;;;;;;11.23;5.10;;;;;;;;;;10524186;28;20215;-69
2021/06/16 06:01:20;;;;;;;10.67;5.20;;;;;;;;;;10530173;28;20283;-68
2021/06/16 06:06:23;;;;;;;11.50;5.17;;;;;;;;;;10526258;28;20295;-69
2021/06/16 06:11:25;;;;;;;7.90;4.77;;;;;;;;;;10537269;28;20279;-69
2021/06/16 06:16:29;;;;;;;9.13;4.93;;;;;;;;;;10536060;28;20605;-68
2021/06/16 06:21:32;;;;;;;10.17;4.67;;;;;;;;;;10541975;28;20245;-70
2021/06/16 06:26:35;;;;;;;9.87;4.60;;;;;;;;;;10541114;28;20211;-70
2021/06/16 06:31:39;;;;;;;8.60;4.20;;;;;;;;;;10520487;28;20205;-70
2021/06/16 06:36:42;;;;;;;9.60;4.60;;;;;;;;;;10529707;28;20281;-69
2021/06/16 06:41:45;;;;;;;8.60;4.10;;;;;;;;;;10524933;28;20201;-69
2021/06/16 06:46:48;;;;;;;6.93;3.90;;;;;;;;;;10529812;28;20207;-70
2021/06/16 06:51:51;;;;;;;8.10;3.90;;;;;;;;;;10544065;28;20194;-70
2021/06/16 06:56:54;;;;;;;7.90;3.38;;;;;;;;;;10519404;28;20290;-69
2021/06/16 07:01:59;;;;;;;7.50;3.22;;;;;;;;;;10526346;28;20279;-70
2021/06/16 07:07:02;;;;;;;7.38;3.40;;;;;;;;;;10530241;28;20214;-69
2021/06/16 07:12:05;;;;;;;11.77;3.40;;;;;;;;;;10537572;28;20669;-71
2021/06/16 07:17:09;;;;;;;6.72;3.28;;;;;;;;;;10526554;28;20313;-70
2021/06/16 07:22:11;;;;;;;9.02;3.00;;;;;;;;;;10527188;28;20228;-71
2021/06/16 07:27:14;;;;;;;6.63;2.83;;;;;;;;;;10516583;28;20249;-70
2021/06/16 07:32:18;;;;;;;7.75;3.13;;;;;;;;;;10524482;28;20319;-68
2021/06/16 07:37:21;;;;;;;6.35;3.20;;;;;;;;;;10528431;28;20243;-69
2021/06/16 07:42:23;;;;;;;7.13;3.10;;;;;;;;;;10525643;28;20756;-70
2021/06/16 07:47:27;;;;;;;5.90;2.78;;;;;;;;;;10526943;28;20352;-69
2021/06/16 07:52:29;;;;;;;8.70;3.17;;;;;;;;;;10524615;28;20279;-71
2021/06/16 07:57:32;;;;;;;5.43;2.90;;;;;;;;;;10522109;28;20553;-71
2021/06/16 08:02:37;;;;;;;8.75;3.08;;;;;;;;;;10532923;28;20211;-71
2021/06/16 08:07:40;;;;;;;12.57;6.70;;;;;;;;;;10520311;28;20637;-70
2021/06/16 08:12:43;;;;;;;6.03;3.28;;;;;;;;;;10532301;28;20207;-71
2021/06/16 08:17:49;;;;;;;6.85;3.30;;;;;;;;;;10535073;28;20218;-70
2021/06/16 08:22:52;;;;;;;6.32;3.20;;;;;;;;;;10532944;28;20196;-71
2021/06/16 08:27:54;;;;;;;4.68;3.08;;;;;;;;;;10530414;28;20294;-71
2021/06/16 08:32:58;;;;;;;7.13;3.03;;;;;;;;;;10520727;28;20191;-69
2021/06/16 08:38:01;;;;;;;6.07;2.83;;;;;;;;;;10537633;28;20297;-70
2021/06/16 08:43:04;;;;;;;8.07;3.05;;;;;;;;;;10532485;28;20241;-70
2021/06/16 08:48:08;;;;;;;5.28;3.17;;;;;;;;;;10529840;28;20219;-70
2021/06/16 08:53:10;;;;;;;7.97;2.83;;;;;;;;;;10528699;28;20303;-70
2021/06/16 08:58:14;;;;;;;5.35;2.97;;;;;;;;;;10529155;28;20259;-70
2021/06/16 09:03:18;;;;;;;6.30;3.00;;;;;;;;;;10532189;28;20188;-71
2021/06/16 09:08:22;;;;;;;5.10;2.80;;;;;;;;;;10525639;28;20234;-71
2021/06/16 09:13:26;;;;;;;6.72;2.92;;;;;;;;;;10528521;28;20634;-71
2021/06/16 09:18:42;;;;;;;4.28;2.78;;;;;;;;;;10529548;28;20223;-71
2021/06/16 09:23:44;;;;;;;5.20;3.25;;;;;;;;;;10520768;28;20198;-70
2021/06/16 09:28:49;;;;;;;9.05;3.47;;;;;;;;;;10505343;28;20217;-70
2021/06/16 09:33:54;;;;;;;5.22;3.03;;;;;;;;;;10522866;28;20728;-71
2021/06/16 09:39:01;;;;;;;4.70;3.08;;;;;;;;;;10521740;28;20223;-72
2021/06/16 09:44:04;;;;;;;6.25;3.40;;;;;;;;;;10541260;28;20618;-70
2021/06/16 09:49:08;;;;;;;5.88;3.80;;;;;;;;;;10529024;28;20242;-72
2021/06/16 09:54:14;;;;;;;6.28;3.50;;;;;;;;;;10520956;28;20195;-72
2021/06/16 09:59:34;;;;;;;7.35;3.00;;;;;;;;;;10516793;28;20234;-71
2021/06/16 10:04:42;;;;;;;5.25;3.40;;;;;;;;;;10520327;28;20194;-72
2021/06/16 10:09:51;;;;;;;4.25;3.03;;;;;;;;;;10518453;28;20987;-72
2021/06/16 10:14:54;;;;;;;6.15;3.58;;;;;;;;;;10526920;28;20219;-72
2021/06/16 10:19:58;;;;;;;5.93;2.90;;;;;;;;;;10522909;28;20221;-71
2021/06/16 10:25:00;;;;;;;3.50;2.80;;;;;;;;;;10510581;28;20291;-70
2021/06/16 10:30:05;;;;;;;4.93;3.08;;;;;;;;;;10509462;28;20211;-71
2021/06/16 10:35:11;;;;;;;4.35;3.10;;;;;;;;;;10514947;28;20290;-70
2021/06/16 10:40:38;;;;;;;4.13;2.97;;;;;;;;;;10505862;28;20745;-71
2021/06/16 10:45:41;;;;;;;4.95;3.05;;;;;;;;;;10517407;28;20273;-71
2021/06/16 10:51:01;;;;;;;4.60;2.50;;;;;;;;;;10527138;28;20232;-70
2021/06/16 10:56:07;;;;;;;5.40;2.80;;;;;;;;;;10507346;28;20678;-71
2021/06/16 11:01:11;;;;;;;4.43;3.05;;;;;;;;;;10507137;28;20193;-71
2021/06/16 11:06:36;;;;;;;5.97;3.00;;;;;;;;;;10521389;28;20718;-72
2021/06/16 11:12:04;;;;;;;5.05;3.10;;;;;;;;;;10518604;28;20218;-71
2021/06/16 11:17:07;;;;;;;6.72;3.15;;;;;;;;;;10509221;28;20234;-70
2021/06/16 11:22:29;;;;;;;5.05;3.20;;;;;;;;;;10525681;28;20646;-71
2021/06/16 11:27:50;;;;;;;4.40;2.97;;;;;;;;;;10524655;28;20210;-71
2021/06/16 11:33:08;;;;;;;7.40;3.50;;;;;;;;;;10516322;28;20570;-71
2021/06/16 11:38:12;;;;;;;4.40;3.00;;;;;;;;;;10524838;28;20242;-74
2021/06/16 11:43:27;;;;;;;5.72;2.80;;;;;;;;;;10534649;28;20280;-71
2021/06/16 11:48:29;;;;;;;6.50;2.90;;;;;;;;;;10540258;28;20235;-72
2021/06/16 11:53:34;;;;;;;4.75;2.90;;;;;;;;;;10533285;28;20263;-70
2021/06/16 11:58:37;;;;;;;6.90;3.00;;;;;;;;;;10551591;27;20254;-71
2021/06/16 12:03:41;;;;;;;3.95;2.70;;;;;;;;;;10525966;28;20195;-71
2021/06/16 12:08:45;;;;;;;5.10;3.10;;;;;;;;;;10534949;27;20212;-71
2021/06/16 12:13:54;;;;;;;5.80;2.90;;;;;;;;;;10518721;28;20196;-71
2021/06/16 12:19:15;;;;;;;5.03;2.60;;;;;;;;;;10505650;28;20611;-73
2021/06/16 12:24:20;;;;;;;7.75;4.03;;;;;;;;;;10519131;28;20282;-71
2021/06/16 12:29:23;;;;;;;5.68;2.78;;;;;;;;;;10512133;28;20290;-71
2021/06/16 12:39:55;;;;;;;9.57;3.90;;;;;;;;;;10514310;28;20227;-71
2021/06/16 12:44:58;;;;;;;5.20;2.35;;;;;;;;;;10537583;28;20305;-71
2021/06/16 12:50:00;;;;;;;4.35;2.30;;;;;;;;;;10520834;28;20367;-71
2021/06/16 12:55:12;;;;;;;5.68;2.33;;;;;;;;;;10524465;28;20261;-71
2021/06/16 13:00:17;;;;;;;3.88;2.33;;;;;;;;;;10526539;28;20223;-71
2021/06/16 13:05:25;;;;;;;3.40;2.03;;;;;;;;;;10525205;28;20651;-72
2021/06/16 13:10:33;;;;;;;4.60;2.83;;;;;;;;;;10518558;28;20630;-71
2021/06/16 13:15:47;;;;;;;4.63;2.53;;;;;;;;;;10509422;28;20278;-70
2021/06/16 13:20:50;;;;;;;5.18;2.08;;;;;;;;;;10513587;28;20191;-70
2021/06/16 13:25:55;;;;;;;4.55;2.40;;;;;;;;;;10513275;28;20662;-70
2021/06/16 13:30:59;;;;;;;4.90;1.90;;;;;;;;;;10520350;28;20643;-71
2021/06/16 13:36:01;;;;;;;3.75;2.10;;;;;;;;;;10523697;28;20212;-70
2021/06/16 13:41:06;;;;;;;4.15;2.30;;;;;;;;;;10517305;28;20352;-69
2021/06/16 13:46:08;;;;;;;7.95;5.60;;;;;;;;;;10520297;28;20289;-69
2021/06/16 13:51:11;;;;;;;5.07;2.67;;;;;;;;;;10525595;28;20605;-69
2021/06/16 13:56:15;;;;;;;5.53;3.00;;;;;;;;;;10520392;28;20218;-70
2021/06/16 14:01:18;;;;;;;5.40;2.55;;;;;;;;;;10536508;28;20260;-70
2021/06/16 14:06:20;;;;;;;3.28;2.00;;;;;;;;;;10515644;28;20211;-70
2021/06/16 14:11:28;;;;;;;3.63;2.30;;;;;;;;;;10519383;28;20237;-70
2021/06/16 14:16:31;;;;;;;2.83;1.90;;;;;;;;;;10521376;28;20326;-71
2021/06/16 14:21:34;;;;;;;5.10;2.10;;;;;;;;;;10521241;28;20263;-71
2021/06/16 14:26:38;;;;;;;6.93;2.45;;;;;;;;;;10527434;28;20397;-70
2021/06/16 14:31:40;;;;;;;4.00;2.00;;;;;;;;;;10520309;28;20313;-69
2021/06/16 14:36:43;;;;;;;4.18;2.15;;;;;;;;;;10516910;28;20301;-69
2021/06/16 14:41:47;;;;;;;4.28;2.30;;;;;;;;;;10513064;28;20275;-70
2021/06/16 14:46:50;;;;;;;7.22;2.40;;;;;;;;;;10514825;28;20211;-71
2021/06/16 14:51:53;;;;;;;4.38;1.80;;;;;;;;;;10523509;28;20301;-71
2021/06/16 14:56:57;;;;;;;6.35;2.20;;;;;;;;;;10506312;28;20317;-70
2021/06/16 15:02:00;;;;;;;3.88;2.00;;;;;;;;;;10527558;28;20302;-70
2021/06/16 15:07:10;;;;;;;5.50;1.92;;;;;;;;;;10522728;28;20208;-70
2021/06/16 15:12:14;;;;;;;3.45;2.30;;;;;;;;;;10525443;28;20188;-68
2021/06/16 15:17:17;;;;;;;4.57;2.22;;;;;;;;;;10527456;28;20224;-68
2021/06/16 15:22:20;;;;;;;3.40;2.10;;;;;;;;;;10523380;28;20203;-67
2021/06/16 15:27:24;;;;;;;4.35;2.10;;;;;;;;;;10523875;28;20218;-68
2021/06/16 15:32:27;;;;;;;7.90;3.45;;;;;;;;;;10526430;28;20196;-68
2021/06/16 15:37:29;;;;;;;4.78;2.60;;;;;;;;;;10524612;28;20216;-68
2021/06/16 15:42:33;;;;;;;4.72;2.80;;;;;;;;;;10525706;28;20282;-66
2021/06/16 15:47:36;;;;;;;5.50;2.30;;;;;;;;;;10524406;28;20218;-66
2021/06/16 15:52:39;;;;;;;6.00;2.70;;;;;;;;;;10522922;28;20188;-68
2021/06/16 15:57:54;;;;;;;5.50;3.10;;;;;;;;;;10527404;28;20282;-67
2021/06/16 16:02:57;;;;;;;6.95;3.20;;;;;;;;;;10521248;28;20199;-67
2021/06/16 16:07:59;;;;;;;4.05;2.63;;;;;;;;;;10523210;28;20254;-67
2021/06/16 16:13:04;;;;;;;7.05;3.63;;;;;;;;;;10522971;28;20188;-67
2021/06/16 16:18:07;;;;;;;6.72;4.05;;;;;;;;;;10523998;28;20212;-67
2021/06/16 16:23:10;;;;;;;6.20;2.78;;;;;;;;;;10520917;28;20220;-67
2021/06/16 16:28:14;;;;;;;5.10;2.65;;;;;;;;;;10539943;28;20215;-66
2021/06/16 16:33:18;;;;;;;6.30;2.50;;;;;;;;;;10549766;28;20626;-68
2021/06/16 16:38:20;;;;;;;5.63;2.80;;;;;;;;;;10547707;28;20221;-68
2021/06/16 16:43:24;;;;;;;4.85;2.92;;;;;;;;;;10554337;28;20198;-67
2021/06/16 16:48:27;;;;;;;6.72;3.05;;;;;;;;;;10550884;28;20213;-69
2021/06/16 16:53:29;;;;;;;6.03;2.80;;;;;;;;;;10534182;28;20262;-69
2021/06/16 16:58:33;;;;;;;5.07;2.90;;;;;;;;;;10541073;28;20226;-67
2021/06/16 17:03:36;;;;;;;7.85;3.00;;;;;;;;;;10544804;28;20286;-69
2021/06/16 17:08:41;;;;;;;6.80;3.03;;;;;;;;;;10542953;28;20290;-69
2021/06/16 17:14:05;;;;;;;8.57;3.42;;;;;;;;;;10553025;27;20200;-68
2021/06/16 17:19:07;;;;;;;5.43;2.80;;;;;;;;;;10543113;28;20305;-69
2021/06/16 17:24:12;;;;;;;7.22;2.72;;;;;;;;;;10544957;28;20252;-67
2021/06/16 17:29:16;;;;;;;10.02;2.97;;;;;;;;;;10540782;28;20215;-69
2021/06/16 17:34:20;;;;;;;5.38;2.83;;;;;;;;;;10537675;28;20231;-68
2021/06/16 17:39:26;;;;;;;6.07;3.00;;;;;;;;;;10521524;28;20222;-69
2021/06/16 17:44:30;;;;;;;6.55;3.00;;;;;;;;;;10530509;28;20290;-68
2021/06/16 17:49:33;;;;;;;5.53;3.17;;;;;;;;;;10523743;28;20215;-68
2021/06/16 17:54:36;;;;;;;7.03;3.60;;;;;;;;;;10527520;28;20211;-68
2021/06/16 17:59:40;;;;;;;7.10;2.90;;;;;;;;;;10524296;28;20246;-68
2021/06/16 18:04:45;;;;;;;4.97;2.80;;;;;;;;;;10530356;28;20667;-68
2021/06/16 18:09:47;;;;;;;6.95;2.95;;;;;;;;;;10519514;28;20214;-69
2021/06/16 18:14:51;;;;;;;7.00;2.97;;;;;;;;;;10524928;28;20239;-67
2021/06/16 18:19:54;;;;;;;6.55;2.90;;;;;;;;;;10519699;28;20216;-68
2021/06/16 18:24:56;;;;;;;7.13;2.88;;;;;;;;;;10526313;28;20200;-67
2021/06/16 18:30:00;;;;;;;5.28;2.70;;;;;;;;;;10527909;28;20291;-67
2021/06/16 18:35:06;;;;;;;7.07;2.72;;;;;;;;;;10536804;28;20210;-68
2021/06/16 18:40:10;;;;;;;6.78;3.08;;;;;;;;;;10526608;28;20335;-68
2021/06/16 18:45:15;;;;;;;8.02;3.30;;;;;;;;;;10535879;28;20194;-67
2021/06/16 18:50:18;;;;;;;6.82;3.35;;;;;;;;;;10541468;28;20813;-69
2021/06/16 18:55:21;;;;;;;8.95;3.50;;;;;;;;;;10537059;28;20275;-68
2021/06/16 19:00:26;;;;;;;7.05;3.33;;;;;;;;;;10543049;28;20206;-66
2021/06/16 19:05:30;;;;;;;7.63;3.40;;;;;;;;;;10533039;28;20195;-69
2021/06/16 19:10:32;;;;;;;10.13;3.30;;;;;;;;;;10521961;28;20297;-68
2021/06/16 19:15:37;;;;;;;6.32;3.20;;;;;;;;;;10527121;28;20199;-69
2021/06/16 19:20:40;;;;;;;9.23;3.80;;;;;;;;;;10523947;28;20231;-69
2021/06/16 19:25:43;;;;;;;9.15;3.72;;;;;;;;;;10521181;28;20199;-74
2021/06/16 19:30:47;;;;;;;7.57;3.60;;;;;;;;;;10528644;28;20676;-70
2021/06/16 19:35:52;;;;;;;7.85;3.58;;;;;;;;;;10518928;28;20200;-68
2021/06/16 19:40:58;;;;;;;8.48;3.22;;;;;;;;;;10520505;28;20217;-70
2021/06/16 19:46:02;;;;;;;9.85;3.30;;;;;;;;;;10538080;28;20195;-68
2021/06/16 19:51:05;;;;;;;7.38;3.80;;;;;;;;;;10532468;28;20631;-68
2021/06/16 19:56:09;;;;;;;7.05;3.22;;;;;;;;;;10543040;28;20557;-69
2021/06/16 20:01:13;;;;;;;7.57;3.55;;;;;;;;;;10541829;28;20269;-69
2021/06/16 20:06:16;;;;;;;7.47;3.30;;;;;;;;;;10552763;28;20305;-69
2021/06/16 20:11:18;;;;;;;7.93;3.53;;;;;;;;;;10551076;28;20183;-69
2021/06/16 20:16:24;;;;;;;8.17;3.40;;;;;;;;;;10555336;28;20299;-68
2021/06/16 20:21:27;;;;;;;6.82;3.40;;;;;;;;;;10546434;28;20371;-70
2021/06/16 20:26:30;;;;;;;6.90;3.50;;;;;;;;;;10554992;28;20299;-69
2021/06/16 20:31:35;;;;;;;5.47;3.30;;;;;;;;;;10547912;28;20222;-69
2021/06/16 20:36:38;;;;;;;8.90;3.65;;;;;;;;;;10531643;28;20227;-68
2021/06/16 20:41:41;;;;;;;7.67;3.93;;;;;;;;;;10528910;28;20329;-68
2021/06/16 20:46:45;;;;;;;8.80;4.13;;;;;;;;;;10527592;28;20622;-70
2021/06/16 20:51:48;;;;;;;8.40;3.57;;;;;;;;;;10532516;28;20251;-69
2021/06/16 20:56:52;;;;;;;8.32;3.85;;;;;;;;;;10527337;28;20634;-69
2021/06/16 21:02:00;;;;;;;9.52;4.00;;;;;;;;;;10533731;28;20204;-69
2021/06/16 21:07:03;;;;;;;8.07;3.92;;;;;;;;;;10530305;28;20219;-69
2021/06/16 21:12:06;;;;;;;8.17;4.37;;;;;;;;;;10533991;28;20230;-68
2021/06/16 21:17:10;;;;;;;10.50;5.17;;;;;;;;;;10529235;28;20319;-69
2021/06/16 21:22:14;;;;;;;10.30;4.70;;;;;;;;;;10527040;28;20299;-70
2021/06/16 21:27:16;;;;;;;10.77;5.87;;;;;;;;;;10531480;28;20297;-69
2021/06/16 21:32:21;;;;;;;9.53;4.93;;;;;;;;;;10529557;28;20234;-69
2021/06/16 21:37:24;;;;;;;7.60;4.30;;;;;;;;;;10553368;28;20215;-68
2021/06/16 21:42:26;;;;;;;6.63;3.97;;;;;;;;;;10533083;28;20247;-67
2021/06/16 21:47:30;;;;;;;12.00;6.07;;;;;;;;;;10526202;28;20235;-68
2021/06/16 21:52:33;;;;;;;13.27;6.67;;;;;;;;;;10520168;28;20195;-69
2021/06/16 21:57:35;;;;;;;8.93;4.87;;;;;;;;;;10543597;28;20697;-69
2021/06/16 22:02:39;;;;;;;11.07;4.50;;;;;;;;;;10529560;28;20247;-70
2021/06/16 22:07:42;;;;;;;11.67;6.20;;;;;;;;;;10530439;28;20322;-69
2021/06/16 22:12:45;;;;;;;9.77;5.40;;;;;;;;;;10527205;28;20245;-69
2021/06/16 22:17:50;;;;;;;8.67;4.37;;;;;;;;;;10526849;28;20801;-69
2021/06/16 22:22:53;;;;;;;8.47;4.20;;;;;;;;;;10537897;28;20285;-70
2021/06/16 22:27:58;;;;;;;8.83;4.00;;;;;;;;;;10530402;28;20366;-70
2021/06/16 22:33:04;;;;;;;7.07;3.93;;;;;;;;;;10524779;28;20199;-69
2021/06/16 22:38:06;;;;;;;7.03;3.90;;;;;;;;;;10523682;28;20273;-71
2021/06/16 22:43:09;;;;;;;8.20;3.87;;;;;;;;;;10529094;28;20207;-70
2021/06/16 22:48:14;;;;;;;6.50;3.60;;;;;;;;;;10527976;28;20211;-70
2021/06/16 22:53:16;;;;;;;7.53;4.00;;;;;;;;;;10526731;28;20220;-70
2021/06/16 22:58:20;;;;;;;10.13;4.63;;;;;;;;;;10527651;28;20219;-70
2021/06/16 23:03:24;;;;;;;7.10;4.10;;;;;;;;;;10530093;28;20223;-70
2021/06/16 23:08:27;;;;;;;6.83;3.80;;;;;;;;;;10517468;28;20216;-69
2021/06/16 23:13:30;;;;;;;7.23;4.10;;;;;;;;;;10526955;28;20231;-69
2021/06/16 23:18:34;;;;;;;8.03;3.87;;;;;;;;;;10527148;28;20212;-69
2021/06/16 23:23:37;;;;;;;6.90;3.77;;;;;;;;;;10526032;28;20274;-69
2021/06/16 23:28:39;;;;;;;8.07;4.37;;;;;;;;;;10523273;28;20586;-70
2021/06/16 23:33:43;;;;;;;7.87;3.80;;;;;;;;;;10527765;28;20218;-68
2021/06/16 23:38:46;;;;;;;10.43;4.13;;;;;;;;;;10529373;28;20290;-69
2021/06/16 23:43:48;;;;;;;7.47;3.90;;;;;;;;;;10531764;28;20194;-69
2021/06/16 23:48:52;;;;;;;10.50;4.60;;;;;;;;;;10537383;28;20286;-69
2021/06/16 23:53:54;;;;;;;12.43;6.07;;;;;;;;;;10531271;28;20191;-68
2021/06/16 23:58:57;;;;;;;8.63;4.50;;;;;;;;;;10536803;28;20260;-69
